Sada, Spain
Current Conditions -  °F | °C
As of 12:00 AM on Sunday 26 Oct 2014 (Local Time) from LECO Reporting Station
Clear Clear  
Wind Chill: 61°   Ceiling: Unl
Heat Index: 61°   Visibility: 6mi
Dew Point: 59°   Wind: 3mph
Humidity: 94%   Direction: 180°S
Pressure: 30.12"   Gusts: NA
Location:  43.36°N, 8.26°W
Report Text: LECO 252200Z 18003KT CAVOK 16/15 Q1020 NOSIG
Loading
Personal Weather Stations






























Interactive Weather Map
Tropical Storm Tracking
New forecast layout! Learn more

10-Day Weather Forecast

Advertisements
Track Severe Weather on mobile